Terminal Aerodrome Forecast
Issued by NWS

Home | Current Version | Previous Version | Text Only | Print | Product List | Glossary On
Versions: 1 2 3 4 5 6 7 8 9 10 11 12 13 14 15 16 17 18
000
FTUS43 KMPX 050520
TAFRWF
TAF
KRWF 050520Z 0506/0606 16009KT P6SM FEW020 SCT100
     FM050900 14007KT 5SM BR FEW015 SCT080
     FM051400 17012G20KT P6SM FEW030 SCT150
     FM051900 18018G25KT P6SM SCT040 BKN250
     FM060000 17013KT P6SM SCT035 BKN150=

USA.gov is the U.S. government's official web portal to all federal, state and local government web resources and services.